Terminal Aerodrome Forecast
Issued by NWS

Home | Current Version | Previous Version | Text Only | Print | Product List | Glossary On
Versions: 1 2 3 4 5 6 7 8 9 10 11 12 13 14 15 16 17 18 19 20 21 22 23 24 25 26 27 28 29 30 31 32 33
373
FTUS46 KLOX 260258 AAC
TAFLAX
TAF AMD
KLAX 260258Z 2603/2706 27010KT P6SM BKN100
     FM260900 06005KT P6SM -SHRA BKN030 OVC050
     FM261300 09008KT 5SM -RA BR BKN010 OVC021
     FM261700 14005KT P6SM -SHRA SCT015 BKN025
     FM262000 18007KT P6SM VCSH BKN020 BKN040
     FM270500 19007KT 5SM BR VCSH BKN015 OVC030=

USA.gov is the U.S. government's official web portal to all federal, state and local government web resources and services.